X  Schlie├čen Metar Luftfahrt Wetterdaten     EBBR Brussels Airport
Temperatur
8°C Temperatur
7°C Taupunkt
93% Feuchtigkeit



Wind
8 KM/H
5 MPH
2 M/S
4 KTS



80°
Ost
Aktuelle Wetterlage

Leicht  Regen Leicht Regen
Luftdruck 1008.92 (hPa) - 29.79 (inHg)
Sichtweite 5 (Meile) - 8 (km)
Flughafen
Flughafen Code EBBR

Position : Brussels Airport
Entfernung: 14 (km)

Metar:
EBBR 101420Z 08004KT 8000 -RA SCT007 BKN032 08/07 Q1009 TEMPO 4000 RA BKN008

Zeit: 2021-04-10 16:20 CEST